Time;durP1;ratioP1;P1;durP2;ratioP2;P2;SDS_P1;SDS_P2;PMS_P1;PMS_P2;Temp;Humidity;BMP_temperature;BMP_pressure;BME280_temperature;BME280_humidity;BME280_pressure;Samples;Min_cycle;Max_cycle;Signal;HPM_P1;HPM_P2
2022/04/02 00:00:58;;;;;;;14.90;7.85;;;0.10;84.10;;;;;;4951401;29;20374;-66
2022/04/02 00:03:26;;;;;;;13.73;7.35;;;0.10;84.20;;;;;;4946836;29;20176;-67
2022/04/02 00:05:55;;;;;;;16.27;6.78;;;0.10;84.30;;;;;;4948319;29;20529;-67
2022/04/02 00:08:24;;;;;;;16.85;7.18;;;0.10;84.40;;;;;;4941095;29;20050;-67
2022/04/02 00:10:53;;;;;;;16.00;7.63;;;0.00;84.40;;;;;;4953796;29;20070;-67
2022/04/02 00:13:22;;;;;;;12.27;6.60;;;0.00;84.40;;;;;;4938985;29;20052;-66
2022/04/02 00:15:50;;;;;;;13.93;8.10;;;0.00;84.50;;;;;;4936411;29;20055;-66
2022/04/02 00:18:18;;;;;;;20.45;8.07;;;0.00;84.60;;;;;;4945026;29;20036;-66
2022/04/02 00:20:46;;;;;;;16.17;7.55;;;-0.10;84.70;;;;;;4954394;28;20055;-67
2022/04/02 00:26:02;;;;;;;23.70;8.05;;;-0.20;84.70;;;;;;4940486;29;20051;-67
2022/04/02 00:28:39;;;;;;;18.23;8.30;;;-0.20;84.80;;;;;;4950035;29;20535;-66
2022/04/02 00:31:12;;;;;;;16.27;8.35;;;-0.20;84.90;;;;;;4939424;29;20047;-66
2022/04/02 00:33:43;;;;;;;11.20;6.40;;;-0.30;85.00;;;;;;4945056;29;20048;-66
2022/04/02 00:36:12;;;;;;;19.20;8.98;;;-0.30;85.00;;;;;;4939884;29;20059;-66
2022/04/02 00:38:41;;;;;;;19.00;8.10;;;-0.20;85.10;;;;;;4929738;29;20056;-66
2022/04/02 00:41:09;;;;;;;16.73;9.18;;;-0.20;85.10;;;;;;4944678;29;20402;-67
2022/04/02 00:43:41;;;;;;;18.40;10.05;;;-0.20;85.10;;;;;;4946848;29;20070;-66
2022/04/02 00:46:11;;;;;;;12.88;8.77;;;-0.20;85.10;;;;;;4942043;29;20044;-67
2022/04/02 00:48:39;;;;;;;15.15;9.15;;;-0.20;85.30;;;;;;4953021;29;20058;-66
2022/04/02 00:51:12;;;;;;;18.23;8.70;;;-0.20;85.40;;;;;;4953772;28;20044;-66
2022/04/02 00:53:44;;;;;;;17.75;9.05;;;-0.20;85.40;;;;;;4952632;28;20051;-66
2022/04/02 00:56:14;;;;;;;19.42;10.40;;;-0.20;85.40;;;;;;4933776;29;20540;-67
2022/04/02 00:58:43;;;;;;;15.48;9.52;;;-0.30;85.50;;;;;;4934111;29;20043;-68
2022/04/02 01:01:16;;;;;;;13.77;9.05;;;-0.30;85.60;;;;;;4934417;29;20048;-67
2022/04/02 01:03:49;;;;;;;17.42;10.07;;;-0.30;85.60;;;;;;4932500;29;20498;-67
2022/04/02 01:06:21;;;;;;;15.60;9.55;;;-0.40;85.60;;;;;;4946932;29;20054;-67
2022/04/02 01:08:51;;;;;;;10.93;9.13;;;-0.40;85.80;;;;;;4938404;29;20422;-67
2022/04/02 01:11:20;;;;;;;16.20;8.45;;;-0.30;85.90;;;;;;4939161;29;20047;-67
2022/04/02 01:13:53;;;;;;;16.27;9.02;;;-0.30;85.90;;;;;;4940266;29;20048;-67
2022/04/02 01:16:21;;;;;;;16.73;8.73;;;-0.30;85.80;;;;;;4945663;29;20058;-67
2022/04/02 01:18:54;;;;;;;;;;;-0.30;85.90;;;;;;4952639;29;20066;-67
2022/04/02 01:21:27;;;;;;;13.02;8.65;;;-0.30;85.90;;;;;;4935455;29;19922;-67
2022/04/02 01:23:59;;;;;;;10.18;6.03;;;-0.20;85.80;;;;;;4952343;29;20062;-67
2022/04/02 01:26:28;;;;;;;12.00;8.25;;;-0.20;85.70;;;;;;4941438;29;20078;-67
2022/04/02 01:29:06;;;;;;;14.77;7.68;;;-0.20;85.70;;;;;;4921694;29;20144;-67
2022/04/02 01:31:45;;;;;;;12.32;8.43;;;-0.10;85.70;;;;;;4956022;29;20066;-67
2022/04/02 01:34:20;;;;;;;9.13;6.38;;;-0.10;85.60;;;;;;4955856;29;20047;-67
2022/04/02 01:36:50;;;;;;;13.93;7.90;;;0.00;85.60;;;;;;4943741;29;20052;-67
2022/04/02 01:39:27;;;;;;;19.67;8.82;;;0.00;85.50;;;;;;4937463;29;20047;-67
2022/04/02 01:41:55;;;;;;;15.30;8.40;;;0.00;85.50;;;;;;4938697;29;20047;-67
2022/04/02 01:44:30;;;;;;;19.35;10.50;;;0.00;85.50;;;;;;4943288;29;20046;-67
2022/04/02 01:46:58;;;;;;;20.80;10.02;;;0.00;85.50;;;;;;4957596;29;20051;-67
2022/04/02 01:49:26;;;;;;;22.85;9.52;;;0.10;85.50;;;;;;4956464;29;20047;-67
2022/04/02 01:51:56;;;;;;;15.93;9.25;;;0.20;85.50;;;;;;4952706;29;20051;-67
2022/04/02 01:54:24;;;;;;;22.48;9.65;;;0.20;85.40;;;;;;4955424;29;20055;-67
2022/04/02 01:57:02;;;;;;;15.38;8.95;;;0.20;85.40;;;;;;4956304;29;20055;-67
2022/04/02 01:59:30;;;;;;;17.58;9.05;;;0.30;85.40;;;;;;4941445;29;20059;-67
2022/04/02 02:01:57;;;;;;;15.55;8.48;;;0.30;85.40;;;;;;4920775;29;20056;-67
2022/04/02 02:04:26;;;;;;;15.35;8.68;;;0.30;85.40;;;;;;4920885;29;20055;-67
2022/04/02 02:06:54;;;;;;;16.63;8.18;;;0.30;85.30;;;;;;4935821;29;20066;-67
2022/04/02 02:09:23;;;;;;;12.68;8.60;;;0.40;85.30;;;;;;4937253;29;20051;-67
2022/04/02 02:12:10;;;;;;;15.50;9.60;;;0.50;85.30;;;;;;4938175;29;20052;-67
2022/04/02 02:15:16;;;;;;;24.52;9.95;;;0.60;85.20;;;;;;4916365;29;20047;-67
2022/04/02 02:17:51;;;;;;;28.75;11.68;;;0.60;85.10;;;;;;4936695;29;20067;-67
2022/04/02 02:20:19;;;;;;;22.38;10.93;;;0.70;85.00;;;;;;4937755;29;20401;-67
2022/04/02 02:22:49;;;;;;;27.77;11.15;;;0.70;85.00;;;;;;4936629;29;20052;-67
2022/04/02 02:25:18;;;;;;;22.17;10.95;;;0.70;85.00;;;;;;4949259;29;20051;-67
2022/04/02 02:27:48;;;;;;;23.67;11.15;;;0.80;85.00;;;;;;4956047;29;20536;-67
2022/04/02 02:30:19;;;;;;;15.75;10.10;;;0.80;85.00;;;;;;4954814;29;20054;-67
2022/04/02 02:32:47;;;;;;;15.88;9.32;;;0.80;85.00;;;;;;4955258;29;20051;-67
2022/04/02 02:38:08;;;;;;;19.83;10.27;;;0.90;85.00;;;;;;4944406;29;20058;-67
2022/04/02 02:40:44;;;;;;;20.17;9.60;;;0.90;85.00;;;;;;4955413;29;20522;-67
2022/04/02 02:43:17;;;;;;;18.40;10.07;;;1.00;85.00;;;;;;4954593;29;20051;-67
2022/04/02 02:45:47;;;;;;;17.25;9.63;;;1.00;84.90;;;;;;4939811;29;20058;-67
2022/04/02 02:48:17;;;;;;;19.60;9.15;;;1.00;84.90;;;;;;4950821;29;20048;-67
2022/04/02 02:50:49;;;;;;;15.15;9.50;;;1.00;84.90;;;;;;4936087;29;20052;-67
2022/04/02 02:53:18;;;;;;;13.75;9.38;;;1.00;84.90;;;;;;4939987;29;20050;-67
2022/04/02 02:55:49;;;;;;;15.65;9.30;;;0.90;85.00;;;;;;4953291;29;20066;-67
2022/04/02 02:58:16;;;;;;;16.63;9.05;;;0.90;85.00;;;;;;4955067;29;20047;-67
2022/04/02 03:00:46;;;;;;;18.10;9.00;;;0.90;85.00;;;;;;4954532;29;20330;-67
2022/04/02 03:03:24;;;;;;;17.20;8.70;;;0.80;85.00;;;;;;4955110;29;20039;-67
2022/04/02 03:05:55;;;;;;;13.38;8.70;;;0.80;85.10;;;;;;4954062;29;20059;-67
2022/04/02 03:08:23;;;;;;;20.58;8.75;;;0.80;85.10;;;;;;4954216;29;20039;-67
2022/04/02 03:10:55;;;;;;;16.67;8.30;;;0.80;85.10;;;;;;4945040;29;20047;-67
2022/04/02 03:13:27;;;;;;;13.20;8.38;;;0.80;85.20;;;;;;4951538;29;20787;-67
2022/04/02 03:16:04;;;;;;;14.77;8.38;;;0.80;85.20;;;;;;4961127;28;20062;-67
2022/04/02 03:18:32;;;;;;;16.65;8.32;;;0.80;85.20;;;;;;4953873;29;20055;-67
2022/04/02 03:21:05;;;;;;;13.00;8.25;;;0.80;85.20;;;;;;4923699;29;20493;-67
2022/04/02 03:23:33;;;;;;;11.48;8.00;;;0.80;85.20;;;;;;4969144;28;20050;-67
2022/04/02 03:26:02;;;;;;;17.15;8.77;;;0.80;85.30;;;;;;4949781;29;20051;-67
2022/04/02 03:28:36;;;;;;;19.38;9.52;;;0.80;85.30;;;;;;4935331;29;20054;-68
2022/04/02 03:31:03;;;;;;;19.92;10.55;;;0.80;85.30;;;;;;4936328;29;20397;-68
2022/04/02 03:33:32;;;;;;;18.45;10.00;;;0.80;85.30;;;;;;4919511;29;20058;-67
2022/04/02 03:36:03;;;;;;;20.55;9.48;;;0.80;85.30;;;;;;4935993;29;20516;-66
2022/04/02 03:38:31;;;;;;;21.02;9.32;;;0.80;85.40;;;;;;4935191;29;20043;-66
2022/04/02 03:41:07;;;;;;;13.68;7.88;;;0.80;85.40;;;;;;4935061;29;20043;-66
2022/04/02 03:43:34;;;;;;;15.00;8.07;;;0.90;85.40;;;;;;4937364;29;20586;-66
2022/04/02 03:48:49;;;;;;;16.95;9.32;;;1.00;85.40;;;;;;4941042;28;20047;-66
2022/04/02 03:51:18;;;;;;;27.20;9.65;;;1.00;85.30;;;;;;4952986;29;20058;-66
2022/04/02 03:53:48;;;;;;;23.35;10.07;;;1.00;85.30;;;;;;4938582;29;20054;-66
2022/04/02 03:56:16;;;;;;;23.88;9.98;;;1.00;85.30;;;;;;4952958;29;20440;-66
2022/04/02 03:58:54;;;;;;;20.42;9.45;;;1.00;85.30;;;;;;4968533;28;20063;-67
2022/04/02 04:01:22;;;;;;;18.27;9.27;;;1.10;85.30;;;;;;4953807;29;20043;-66
2022/04/02 04:03:51;;;;;;;14.73;8.68;;;1.10;85.30;;;;;;4939548;29;20048;-66
2022/04/02 04:06:19;;;;;;;16.73;8.85;;;1.10;85.20;;;;;;4933727;29;20052;-66
2022/04/02 04:08:48;;;;;;;21.83;9.40;;;1.20;85.20;;;;;;4935068;29;20055;-66
2022/04/02 04:11:18;;;;;;;23.70;9.57;;;1.20;85.20;;;;;;4923337;29;20054;-66
2022/04/02 04:13:50;;;;;;;20.35;9.35;;;1.20;85.20;;;;;;4950410;28;20043;-66
2022/04/02 04:16:19;;;;;;;16.75;8.73;;;1.20;85.20;;;;;;4944819;29;20055;-66
2022/04/02 04:18:47;;;;;;;19.58;9.38;;;1.20;85.20;;;;;;4944969;29;20063;-66
2022/04/02 04:21:15;;;;;;;15.88;8.25;;;1.20;85.20;;;;;;4952566;29;20054;-66
2022/04/02 04:23:45;;;;;;;16.42;8.32;;;1.20;85.20;;;;;;4946253;29;20047;-66
2022/04/02 04:26:14;;;;;;;15.63;7.80;;;1.20;85.20;;;;;;4934876;29;20479;-66
2022/04/02 04:28:46;;;;;;;11.60;7.40;;;1.20;85.30;;;;;;4949620;29;20513;-66
2022/04/02 04:31:17;;;;;;;14.70;7.35;;;1.10;85.30;;;;;;4948492;29;20397;-66
2022/04/02 04:33:47;;;;;;;16.20;8.55;;;1.10;85.30;;;;;;4949347;29;20405;-66
2022/04/02 04:36:16;;;;;;;13.88;6.78;;;1.00;85.30;;;;;;4952729;29;20047;-66
2022/04/02 04:38:46;;;;;;;12.30;6.60;;;1.00;85.30;;;;;;4935397;29;20047;-66
2022/04/02 04:41:18;;;;;;;9.52;5.82;;;0.90;85.40;;;;;;4941750;29;20043;-66
2022/04/02 04:43:49;;;;;;;13.80;6.65;;;0.80;85.40;;;;;;4950355;29;20062;-66
2022/04/02 04:46:20;;;;;;;14.48;7.28;;;0.80;85.40;;;;;;4951018;29;20044;-66
2022/04/02 04:48:51;;;;;;;16.98;7.60;;;0.70;85.50;;;;;;4949652;29;20048;-66
2022/04/02 04:51:23;;;;;;;12.55;8.40;;;0.50;85.60;;;;;;4933841;29;20058;-67
2022/04/02 04:53:53;;;;;;;13.93;7.93;;;0.50;85.70;;;;;;4938172;29;20043;-67
2022/04/02 04:56:21;;;;;;;14.50;8.25;;;0.40;85.70;;;;;;4951590;29;20131;-67
2022/04/02 04:58:49;;;;;;;11.98;7.68;;;0.30;85.80;;;;;;4948749;29;20052;-67
2022/04/02 05:01:19;;;;;;;12.75;8.20;;;0.30;85.90;;;;;;4949128;29;20058;-67
2022/04/02 05:03:47;;;;;;;16.30;10.07;;;0.20;85.90;;;;;;4934505;29;20047;-67
2022/04/02 05:06:19;;;;;;;13.40;9.32;;;0.20;86.00;;;;;;4942651;29;20047;-66
2022/04/02 05:08:52;;;;;;;17.15;9.57;;;0.10;86.10;;;;;;4933621;29;20048;-66
2022/04/02 05:11:23;;;;;;;19.95;10.00;;;0.10;86.10;;;;;;4933663;29;20052;-66
2022/04/02 05:13:54;;;;;;;19.20;9.70;;;0.10;86.10;;;;;;4944564;29;20485;-66
2022/04/02 05:16:26;;;;;;;15.93;9.95;;;0.00;86.10;;;;;;4951548;29;20405;-66
2022/04/02 05:18:55;;;;;;;14.60;9.27;;;0.00;86.20;;;;;;4951234;29;20552;-66
2022/04/02 05:21:25;;;;;;;17.92;10.13;;;0.00;86.20;;;;;;4968298;28;20050;-66
2022/04/02 05:23:53;;;;;;;16.55;9.35;;;0.00;86.30;;;;;;4952232;29;20612;-66
2022/04/02 05:26:21;;;;;;;17.42;11.20;;;-0.10;86.40;;;;;;4952884;28;20052;-66
2022/04/02 05:28:59;;;;;;;17.88;10.75;;;-0.20;86.30;;;;;;4948226;29;20073;-66
2022/04/02 05:31:27;;;;;;;16.98;11.30;;;-0.20;86.50;;;;;;4933999;29;20044;-66
2022/04/02 05:33:55;;;;;;;21.27;10.68;;;-0.30;86.60;;;;;;4935126;29;20069;-66
2022/04/02 05:36:22;;;;;;;18.25;9.43;;;-0.30;86.70;;;;;;4934375;29;20052;-66
2022/04/02 05:38:52;;;;;;;21.10;9.27;;;-0.30;86.90;;;;;;4948796;29;20047;-66
2022/04/02 05:41:19;;;;;;;16.38;9.30;;;-0.30;86.90;;;;;;4952192;29;20066;-66
2022/04/02 05:43:47;;;;;;;18.20;9.27;;;-0.40;87.00;;;;;;4953711;29;20425;-66
2022/04/02 05:46:14;;;;;;;19.17;10.77;;;-0.50;87.00;;;;;;4953229;29;20044;-66
2022/04/02 05:48:43;;;;;;;17.35;9.05;;;-0.50;87.10;;;;;;4946786;28;20058;-66
2022/04/02 05:51:10;;;;;;;16.63;9.48;;;-0.60;87.10;;;;;;4941202;29;20481;-66
2022/04/02 05:53:38;;;;;;;19.05;9.82;;;-0.60;87.20;;;;;;4935162;29;20054;-66
2022/04/02 05:56:06;;;;;;;12.50;8.82;;;-0.70;87.40;;;;;;4934256;29;20485;-66
2022/04/02 05:58:36;;;;;;;21.73;9.88;;;-0.70;87.50;;;;;;4934585;29;20046;-66
2022/04/02 06:01:04;;;;;;;19.58;8.73;;;-0.70;87.40;;;;;;4934468;29;20047;-65
2022/04/02 06:03:32;;;;;;;21.83;9.02;;;-0.70;87.40;;;;;;4934107;29;20501;-66
2022/04/02 06:06:00;;;;;;;19.77;9.63;;;-0.70;87.50;;;;;;4943987;29;20051;-66
2022/04/02 06:08:28;;;;;;;20.05;10.20;;;-0.70;87.60;;;;;;4951822;29;20051;-65
2022/04/02 06:10:55;;;;;;;23.23;10.70;;;-0.80;87.50;;;;;;4953343;29;20370;-66
2022/04/02 06:13:23;;;;;;;20.83;9.93;;;-0.80;87.50;;;;;;4953722;28;20069;-66
2022/04/02 06:15:51;;;;;;;27.83;9.90;;;-0.80;87.50;;;;;;4957225;29;20481;-66
2022/04/02 06:18:18;;;;;;;18.50;10.07;;;-0.70;87.60;;;;;;4939347;28;20052;-65
2022/04/02 06:20:48;;;;;;;26.10;11.07;;;-0.70;87.60;;;;;;4955046;29;20043;-65
2022/04/02 06:23:17;;;;;;;23.95;10.52;;;-0.70;87.60;;;;;;4956260;29;20047;-66
2022/04/02 06:25:45;;;;;;;20.13;10.45;;;-0.70;87.60;;;;;;4947033;29;20494;-66
2022/04/02 06:28:13;;;;;;;20.10;10.63;;;-0.60;87.60;;;;;;4937890;29;20063;-66
2022/04/02 06:30:41;;;;;;;21.65;10.35;;;-0.60;87.60;;;;;;4937596;29;20051;-65
2022/04/02 06:33:08;;;;;;;22.08;9.75;;;-0.60;87.50;;;;;;4938148;29;20047;-66
2022/04/02 06:35:36;;;;;;;27.30;10.02;;;-0.60;87.50;;;;;;4924043;29;20052;-66
2022/04/02 06:38:03;;;;;;;18.30;9.50;;;-0.60;87.50;;;;;;4950068;29;20058;-66
2022/04/02 06:40:31;;;;;;;16.40;10.05;;;-0.50;87.50;;;;;;4954163;28;20078;-66
2022/04/02 06:42:59;;;;;;;22.77;9.95;;;-0.50;87.50;;;;;;4955442;29;20054;-66
2022/04/02 06:45:49;;;;;;;20.80;9.80;;;-0.50;87.50;;;;;;4955316;29;20493;-65
2022/04/02 06:48:16;;;;;;;24.23;10.40;;;-0.50;87.60;;;;;;4952511;28;20058;-66
2022/04/02 06:50:44;;;;;;;25.33;10.43;;;-0.50;87.60;;;;;;4952310;29;20055;-66
2022/04/02 06:53:11;;;;;;;35.65;10.98;;;-0.50;87.60;;;;;;4955482;29;20058;-66
2022/04/02 06:55:40;;;;;;;32.20;10.85;;;-0.40;87.60;;;;;;4955951;29;20047;-66
2022/04/02 06:58:11;;;;;;;32.38;10.88;;;-0.40;87.60;;;;;;4953632;29;20086;-66
2022/04/02 07:00:38;;;;;;;34.38;11.90;;;-0.40;87.50;;;;;;4954432;29;20416;-66
2022/04/02 07:03:06;;;;;;;26.50;11.55;;;-0.40;87.50;;;;;;4953030;29;20062;-66
2022/04/02 07:05:33;;;;;;;24.17;10.15;;;-0.40;87.60;;;;;;4941569;29;20050;-66
2022/04/02 07:08:01;;;;;;;30.85;9.98;;;-0.30;87.60;;;;;;4950863;29;20051;-66
2022/04/02 07:10:29;;;;;;;23.08;11.68;;;-0.30;87.60;;;;;;4937872;29;20047;-67
2022/04/02 07:12:57;;;;;;;21.48;11.68;;;-0.20;87.60;;;;;;4937593;29;20051;-66
2022/04/02 07:15:24;;;;;;;31.50;13.23;;;-0.10;87.60;;;;;;4937094;29;20516;-66
2022/04/02 07:17:52;;;;;;;26.23;10.25;;;-0.10;87.60;;;;;;4962173;28;20092;-66
2022/04/02 07:20:23;;;;;;;22.58;10.38;;;0.00;87.60;;;;;;4950577;29;20051;-67
2022/04/02 07:22:52;;;;;;;27.35;10.90;;;0.00;87.60;;;;;;4944674;29;20055;-66
2022/04/02 07:25:20;;;;;;;21.80;9.88;;;0.20;87.60;;;;;;4948633;29;20496;-67
2022/04/02 07:27:49;;;;;;;24.00;8.85;;;0.40;87.50;;;;;;4944149;29;20051;-66
2022/04/02 07:30:17;;;;;;;21.15;8.10;;;0.50;87.30;;;;;;4935835;28;20056;-66
2022/04/02 07:32:45;;;;;;;19.13;9.02;;;0.60;87.20;;;;;;4938150;29;20379;-66
2022/04/02 07:35:12;;;;;;;15.57;7.75;;;0.80;87.10;;;;;;4938430;29;20401;-66
2022/04/02 07:38:11;;;;;;;20.25;8.23;;;0.90;87.00;;;;;;4936586;29;20512;-66
2022/04/02 07:41:04;;;;;;;23.27;7.88;;;1.00;86.90;;;;;;4949734;29;20043;-66
2022/04/02 07:43:55;;;;;;;16.20;7.53;;;1.20;86.70;;;;;;4962317;28;20051;-66
2022/04/02 07:46:28;;;;;;;16.75;8.38;;;1.30;86.60;;;;;;4940616;29;20050;-66
2022/04/02 07:48:58;;;;;;;18.90;10.18;;;1.40;86.50;;;;;;4936012;29;20055;-67
2022/04/02 07:51:34;;;;;;;19.98;10.13;;;1.50;86.40;;;;;;4943448;29;20413;-69
2022/04/02 07:54:03;;;;;;;16.35;10.25;;;1.70;86.30;;;;;;4937262;29;20512;-67
2022/04/02 07:56:43;;;;;;;19.27;10.18;;;1.80;86.20;;;;;;4936194;29;20051;-66
2022/04/02 07:59:14;;;;;;;14.45;8.73;;;1.90;86.10;;;;;;4934986;29;20515;-66
2022/04/02 08:01:44;;;;;;;19.08;9.25;;;2.00;85.90;;;;;;4940314;29;20052;-68
2022/04/02 08:04:12;;;;;;;20.30;9.63;;;2.20;85.80;;;;;;4953253;29;20066;-67
2022/04/02 08:06:42;;;;;;;19.98;9.90;;;2.30;85.60;;;;;;4953466;29;20048;-67
2022/04/02 08:09:13;;;;;;;20.17;10.38;;;2.30;85.50;;;;;;4951943;29;20043;-66
2022/04/02 08:11:41;;;;;;;16.52;9.70;;;2.50;85.40;;;;;;4939929;29;20043;-67
2022/04/02 08:14:09;;;;;;;22.67;9.65;;;2.70;85.20;;;;;;4937411;29;20502;-67
2022/04/02 08:16:42;;;;;;;18.60;10.35;;;2.80;84.90;;;;;;4940028;28;20052;-67
2022/04/02 08:19:12;;;;;;;18.60;10.50;;;2.90;84.80;;;;;;4944607;29;20049;-67
2022/04/02 08:21:40;;;;;;;17.63;10.82;;;3.00;84.60;;;;;;4946402;29;20044;-67
2022/04/02 08:24:07;;;;;;;15.57;10.45;;;3.10;84.60;;;;;;4940933;29;20494;-66
2022/04/02 08:26:40;;;;;;;;;;;3.30;84.50;;;;;;4940717;29;20486;-67
2022/04/02 08:29:30;;;;;;;16.67;10.05;;;3.40;84.40;;;;;;4935545;29;20292;-67
2022/04/02 08:32:21;;;;;;;17.90;10.43;;;3.60;84.20;;;;;;4940068;29;20043;-67
2022/04/02 08:35:20;;;;;;;24.40;10.93;;;3.70;83.90;;;;;;4954012;28;20051;-67
2022/04/02 08:38:09;;;;;;;19.08;11.00;;;3.80;83.60;;;;;;4945521;28;20081;-67
2022/04/02 08:40:46;;;;;;;17.20;9.35;;;3.90;83.30;;;;;;4947955;28;20445;-67
2022/04/02 08:43:16;;;;;;;16.27;9.23;;;4.00;83.10;;;;;;4948813;29;20521;-68
2022/04/02 08:45:56;;;;;;;15.80;8.05;;;4.10;82.50;;;;;;4938835;28;20442;-68
2022/04/02 08:48:28;;;;;;;12.90;6.05;;;4.20;82.30;;;;;;4939433;29;20050;-67
2022/04/02 08:51:15;;;;;;;12.55;6.82;;;4.40;81.90;;;;;;4948890;29;20040;-67
2022/04/02 08:54:04;;;;;;;8.45;5.93;;;4.50;81.30;;;;;;4947457;29;20051;-67
2022/04/02 08:56:38;;;;;;;9.77;5.22;;;4.70;80.60;;;;;;4951459;29;20047;-67
2022/04/02 08:59:07;;;;;;;11.45;6.03;;;4.80;79.80;;;;;;4939083;29;20051;-67
2022/04/02 09:01:41;;;;;;;12.02;5.97;;;4.90;79.20;;;;;;4949595;29;20035;-67
2022/04/02 09:04:24;;;;;;;10.57;6.10;;;5.00;78.80;;;;;;4946076;29;20481;-67
2022/04/02 09:07:30;;;;;;;12.02;6.38;;;5.10;78.60;;;;;;4936499;29;20067;-67
2022/04/02 09:10:14;;;;;;;10.80;6.40;;;5.30;78.30;;;;;;4942279;29;20051;-68
2022/04/02 09:13:00;;;;;;;12.07;6.10;;;5.30;77.00;;;;;;4948281;29;20046;-68
2022/04/02 09:15:50;;;;;;;12.95;5.60;;;5.50;76.80;;;;;;4945727;29;20036;-68
2022/04/02 09:18:46;;;;;;;6.55;5.13;;;5.60;75.20;;;;;;4939703;29;20040;-68
2022/04/02 09:21:36;;;;;;;3.28;1.65;;;5.70;75.30;;;;;;4947619;28;20047;-67
2022/04/02 09:24:41;;;;;;;3.95;1.63;;;5.90;74.10;;;;;;4939701;29;20055;-67
2022/04/02 09:27:50;;;;;;;11.43;2.15;;;6.10;72.80;;;;;;4926941;29;20056;-67
2022/04/02 09:30:35;;;;;;;4.57;1.40;;;6.20;71.80;;;;;;4934634;29;20047;-68
2022/04/02 09:33:46;;;;;;;3.17;1.42;;;6.30;71.00;;;;;;4937803;29;20051;-68
2022/04/02 09:36:35;;;;;;;2.13;1.25;;;6.30;70.20;;;;;;4948889;29;20066;-66
2022/04/02 09:39:16;;;;;;;3.38;1.02;;;6.30;69.50;;;;;;4947259;29;20051;-67
2022/04/02 09:42:15;;;;;;;2.80;1.10;;;6.30;68.70;;;;;;4945251;29;20050;-67
2022/04/02 09:44:48;;;;;;;2.55;1.17;;;6.50;68.20;;;;;;4937599;29;20055;-67
2022/04/02 09:47:37;;;;;;;2.80;0.80;;;6.60;66.90;;;;;;4945549;28;20055;-67
2022/04/02 09:50:13;;;;;;;1.35;0.80;;;6.80;66.00;;;;;;4953563;29;20078;-69
2022/04/02 09:52:58;;;;;;;1.13;0.55;;;6.80;65.00;;;;;;4949833;28;20523;-68
2022/04/02 09:55:51;;;;;;;3.90;0.90;;;6.90;64.60;;;;;;4944538;28;20062;-67
2022/04/02 09:58:49;;;;;;;3.33;1.38;;;6.90;63.30;;;;;;4945359;29;20080;-67
2022/04/02 10:01:41;;;;;;;2.17;1.10;;;7.00;62.90;;;;;;4948495;28;20059;-68
2022/04/02 10:04:21;;;;;;;1.90;1.00;;;7.20;62.10;;;;;;4949442;29;20520;-68
2022/04/02 10:06:54;;;;;;;4.00;1.50;;;7.30;61.00;;;;;;4942170;28;20060;-69
2022/04/02 10:09:30;;;;;;;4.30;1.70;;;7.30;60.50;;;;;;4941130;28;20421;-69
2022/04/02 10:11:59;;;;;;;3.42;1.90;;;7.50;60.70;;;;;;4948138;29;20043;-68
2022/04/02 10:14:29;;;;;;;3.38;1.50;;;7.70;60.40;;;;;;4945614;29;20067;-68
2022/04/02 10:17:02;;;;;;;9.80;2.17;;;7.80;60.20;;;;;;4945966;28;20063;-67
2022/04/02 10:19:34;;;;;;;;;;;7.90;59.30;;;;;;4937621;29;20048;-68
2022/04/02 10:22:04;;;;;;;4.63;1.88;;;7.90;59.10;;;;;;4944888;29;19923;-72
2022/04/02 10:24:39;;;;;;;5.60;1.98;;;8.00;59.50;;;;;;4946680;29;20039;-68
2022/04/02 10:27:11;;;;;;;4.38;1.77;;;8.20;58.90;;;;;;4948247;29;20055;-70
2022/04/02 10:30:01;;;;;;;3.22;1.70;;;8.40;57.70;;;;;;4954885;29;20062;-68
2022/04/02 10:32:51;;;;;;;2.03;0.82;;;8.80;56.40;;;;;;4939138;29;20048;-68
2022/04/02 10:35:21;;;;;;;1.60;1.20;;;9.20;54.90;;;;;;4938518;29;20064;-68
2022/04/02 10:38:09;;;;;;;4.15;0.90;;;9.40;54.00;;;;;;4951721;29;20048;-68
2022/04/02 10:40:51;;;;;;;5.40;1.67;;;9.60;53.60;;;;;;4945322;29;20043;-68
2022/04/02 10:43:29;;;;;;;4.43;2.00;;;9.80;53.20;;;;;;4953880;29;20043;-68
2022/04/02 10:45:58;;;;;;;4.43;1.77;;;10.00;52.00;;;;;;4949261;29;20124;-69
2022/04/02 10:48:44;;;;;;;7.32;1.48;;;10.30;51.60;;;;;;4955035;29;20039;-69
2022/04/02 10:51:13;;;;;;;2.70;1.38;;;10.40;51.10;;;;;;4936196;29;20051;-68
2022/04/02 10:53:44;;;;;;;2.28;1.13;;;10.60;49.10;;;;;;4938620;29;20047;-68
2022/04/02 10:56:16;;;;;;;1.98;1.23;;;10.60;47.90;;;;;;4955797;28;20051;-67
2022/04/02 10:58:50;;;;;;;3.58;1.33;;;10.70;47.70;;;;;;4935391;29;20050;-72
2022/04/02 11:01:23;;;;;;;4.20;1.23;;;10.70;47.30;;;;;;4942449;29;20052;-67
2022/04/02 11:03:56;;;;;;;1.90;1.13;;;10.80;47.80;;;;;;4942081;29;20430;-67
2022/04/02 11:06:44;;;;;;;2.97;0.90;;;11.10;48.60;;;;;;4938759;29;20047;-67
2022/04/02 11:09:42;;;;;;;3.50;0.90;;;11.40;47.00;;;;;;4945398;29;20500;-67
2022/04/02 11:12:15;;;;;;;3.70;1.35;;;11.70;43.80;;;;;;4946027;28;20047;-67
2022/04/02 11:14:45;;;;;;;1.48;0.93;;;11.80;44.60;;;;;;4947531;29;20066;-69
2022/04/02 11:18:05;;;;;;;2.22;0.90;;;12.10;43.20;;;;;;4952910;29;20055;-68
2022/04/02 11:20:34;;;;;;;1.67;0.80;;;12.20;42.50;;;;;;4933501;28;20406;-68
2022/04/02 11:23:02;;;;;;;2.55;0.95;;;12.40;42.00;;;;;;4942642;29;20044;-68
2022/04/02 11:25:36;;;;;;;2.00;0.90;;;12.70;41.70;;;;;;4949248;29;20055;-68
2022/04/02 11:28:17;;;;;;;2.13;1.10;;;12.80;41.50;;;;;;4954479;29;20394;-69
2022/04/02 11:30:45;;;;;;;4.18;0.98;;;12.80;41.10;;;;;;4937569;29;20051;-68
2022/04/02 11:33:14;;;;;;;3.78;1.02;;;12.50;41.20;;;;;;4945063;29;20050;-69
2022/04/02 11:35:58;;;;;;;2.35;0.95;;;12.20;41.10;;;;;;4943942;28;20063;-68
2022/04/02 11:38:57;;;;;;;2.80;1.20;;;11.80;41.40;;;;;;4936127;29;20044;-69
2022/04/02 11:41:38;;;;;;;3.75;1.25;;;11.40;42.20;;;;;;4955315;29;20058;-68
2022/04/02 11:44:11;;;;;;;3.63;0.93;;;10.90;43.30;;;;;;4951197;29;20429;-68
2022/04/02 11:46:51;;;;;;;;;;;10.50;44.20;;;;;;4933258;29;20059;-68
2022/04/02 11:49:29;;;;;;;6.53;1.20;;;10.20;45.10;;;;;;4938793;28;19930;-68
2022/04/02 11:52:01;;;;;;;3.03;0.70;;;9.80;45.90;;;;;;4944989;29;20066;-68
2022/04/02 11:54:29;;;;;;;2.97;0.90;;;9.60;45.70;;;;;;4944798;29;20042;-68
2022/04/02 11:57:09;;;;;;;2.17;1.08;;;9.30;46.30;;;;;;4936241;29;20055;-69
2022/04/02 11:59:37;;;;;;;2.03;1.00;;;9.20;46.50;;;;;;4948788;29;20044;-68
2022/04/02 12:02:05;;;;;;;3.33;1.17;;;8.90;47.10;;;;;;4940652;29;20078;-68
2022/04/02 12:04:34;;;;;;;2.33;0.80;;;8.90;47.60;;;;;;4936941;29;20055;-68
2022/04/02 12:07:06;;;;;;;3.63;0.90;;;8.90;47.70;;;;;;4941442;29;20121;-68
2022/04/02 12:09:47;;;;;;;4.28;1.00;;;8.80;47.80;;;;;;4950734;28;20527;-68
2022/04/02 12:12:22;;;;;;;2.45;0.90;;;8.80;47.50;;;;;;4940265;29;20039;-69
2022/04/02 12:14:51;;;;;;;4.07;1.10;;;8.90;47.40;;;;;;4942220;29;20077;-68
2022/04/02 12:17:19;;;;;;;3.22;1.10;;;8.90;47.60;;;;;;4939805;29;20040;-69
2022/04/02 12:19:55;;;;;;;3.78;0.93;;;9.00;47.50;;;;;;4940504;29;20067;-68
2022/04/02 12:22:31;;;;;;;2.33;0.82;;;9.30;47.70;;;;;;4952749;28;20048;-69
2022/04/02 12:25:05;;;;;;;6.20;1.10;;;9.40;47.00;;;;;;4936961;29;20413;-69
2022/04/02 12:27:36;;;;;;;7.05;1.10;;;9.50;46.60;;;;;;4940230;29;20046;-68
2022/04/02 12:30:08;;;;;;;4.53;1.65;;;9.70;46.40;;;;;;4945228;29;20051;-68
2022/04/02 12:32:42;;;;;;;2.67;1.20;;;9.80;46.40;;;;;;4942606;29;20048;-68
2022/04/02 12:35:23;;;;;;;1.92;0.88;;;9.80;47.00;;;;;;4941841;29;20048;-67
2022/04/02 12:37:57;;;;;;;1.58;1.15;;;9.70;47.10;;;;;;4936210;29;20520;-70
2022/04/02 12:40:30;;;;;;;3.40;1.33;;;9.70;47.20;;;;;;4949189;29;20150;-68
2022/04/02 12:43:02;;;;;;;6.30;1.10;;;9.70;47.30;;;;;;4940237;29;20043;-68
2022/04/02 12:45:31;;;;;;;4.82;1.23;;;9.80;46.90;;;;;;4942746;29;20052;-67
2022/04/02 12:47:59;;;;;;;2.15;0.80;;;9.80;46.60;;;;;;4946554;29;20051;-68
2022/04/02 12:50:29;;;;;;;4.53;1.10;;;9.80;46.10;;;;;;4946749;29;20058;-68
2022/04/02 12:52:58;;;;;;;4.85;1.08;;;9.90;45.30;;;;;;4946751;29;20051;-68
2022/04/02 12:55:27;;;;;;;1.20;0.70;;;10.00;45.10;;;;;;4942943;29;20059;-68
2022/04/02 12:58:12;;;;;;;3.35;1.00;;;10.10;45.60;;;;;;4943409;29;20043;-68
2022/04/02 13:00:43;;;;;;;1.50;0.73;;;10.40;45.50;;;;;;4938718;29;20047;-68
2022/04/02 13:03:47;;;;;;;2.55;1.00;;;10.80;44.30;;;;;;4947788;29;20054;-68
2022/04/02 13:06:20;;;;;;;3.88;0.73;;;11.20;44.10;;;;;;4912677;29;20494;-68
2022/04/02 13:08:54;;;;;;;;;;;11.60;44.20;;;;;;4904167;29;20499;-68
2022/04/02 13:11:45;;;;;;;1.35;1.00;;;11.90;41.40;;;;;;4903958;29;19927;-68
2022/04/02 13:14:19;;;;;;;5.40;0.93;;;11.80;40.50;;;;;;4913331;29;20401;-68
2022/04/02 13:16:52;;;;;;;2.83;1.10;;;12.10;40.40;;;;;;4912625;29;20056;-68
2022/04/02 13:22:14;;;;;;;3.45;1.08;;;12.70;40.10;;;;;;4905482;29;20094;-68
2022/04/02 13:24:58;;;;;;;1.83;0.90;;;13.10;40.40;;;;;;4912430;29;20055;-68
2022/04/02 13:27:32;;;;;;;1.63;1.00;;;14.00;39.10;;;;;;4902581;29;20048;-68
2022/04/02 13:30:06;;;;;;;1.27;1.05;;;14.90;37.60;;;;;;4916812;29;20673;-68